TAX02JA DTTJ-LPPT
Flight info
| Callsign | TAX02JA |
|---|---|
| Flight time | N/A |
| Altitude | 34000 |
| Route | TINAP1A TINAP A856 KIRAS UZ147 DIMAO UG6 ANB UM134 LUXUR/N0458F330 M134 NINES/N0456F350 M134 VLC/N0356F130 N733 CJN N975 CCS DCT TROIA |
| Aircraft | A321/M-SDE3FGHIRWY/LB1 |
Departure
| Time | 2026-04-30 20:52 |
|---|---|
| Airport | Djerba Zarzis International Airport (DTTJ) |
Arrival
| Time | N/A |
|---|---|
| Airport | Lisbon Humberto Delgado Airport (LPPT) |
| Time | Latitude | Longitude | Altitude | Speed | Heading |
|---|---|---|---|---|---|
| 2026-04-30 20:28 | 33.87248 | 10.77384 | 22 ft | 0 kts | 128° |
| 2026-04-30 20:45 | 33.87261 | 10.77364 | 22 ft | 4 kts | 124° |
| 2026-04-30 20:45 | 33.87275 | 10.77337 | 22 ft | 4 kts | 117° |
| 2026-04-30 20:46 | 33.87280 | 10.77256 | 23 ft | 1 kts | 26° |
| 2026-04-30 20:48 | 33.87326 | 10.77237 | 22 ft | 16 kts | 315° |
| 2026-04-30 20:49 | 33.87363 | 10.77097 | 21 ft | 18 kts | 270° |
| 2026-04-30 20:49 | 33.87359 | 10.76947 | 21 ft | 19 kts | 267° |
| 2026-04-30 20:49 | 33.87357 | 10.76792 | 20 ft | 18 kts | 271° |
| 2026-04-30 20:50 | 33.87347 | 10.76500 | 21 ft | 17 kts | 268° |
| 2026-04-30 20:50 | 33.87342 | 10.76353 | 19 ft | 19 kts | 267° |
| 2026-04-30 20:50 | 33.87339 | 10.76198 | 18 ft | 18 kts | 270° |
| 2026-04-30 20:50 | 33.87356 | 10.76076 | 18 ft | 13 kts | 304° |
| 2026-04-30 20:51 | 33.87434 | 10.76047 | 18 ft | 12 kts | 358° |
| 2026-04-30 20:51 | 33.87505 | 10.76148 | 19 ft | 0 kts | 89° |
| 2026-04-30 20:51 | 33.87511 | 10.76352 | 19 ft | 68 kts | 88° |
| 2026-04-30 20:52 | 33.87533 | 10.77255 | 22 ft | 145 kts | 88° |
| 2026-04-30 20:52 | 33.87572 | 10.78685 | 195 ft | 188 kts | 88° |
| 2026-04-30 20:52 | 33.87601 | 10.82005 | 1605 ft | 206 kts | 96° |
| 2026-04-30 20:53 | 33.86977 | 10.83577 | 2047 ft | 217 kts | 136° |
| 2026-04-30 20:53 | 33.85612 | 10.84353 | 2601 ft | 225 kts | 176° |
| 2026-04-30 20:53 | 33.84104 | 10.83880 | 3126 ft | 232 kts | 217° |
| 2026-04-30 20:54 | 33.83246 | 10.80432 | 4169 ft | 231 kts | 297° |
| 2026-04-30 20:54 | 33.84279 | 10.79012 | 4629 ft | 233 kts | 333° |
| 2026-04-30 20:54 | 33.85830 | 10.78413 | 5216 ft | 232 kts | 347° |
| 2026-04-30 20:55 | 33.88471 | 10.76331 | 6320 ft | 244 kts | 303° |
| 2026-04-30 20:55 | 33.89450 | 10.74543 | 6455 ft | 267 kts | 305° |
| 2026-04-30 20:55 | 33.90556 | 10.72669 | 6874 ft | 279 kts | 307° |
| 2026-04-30 20:56 | 33.92910 | 10.68871 | 8091 ft | 286 kts | 307° |
| 2026-04-30 20:56 | 33.94115 | 10.66953 | 8711 ft | 288 kts | 308° |
| 2026-04-30 20:56 | 33.96395 | 10.63013 | 9866 ft | 293 kts | 293° |
| 2026-04-30 20:57 | 33.97144 | 10.60650 | 10358 ft | 302 kts | 291° |
| 2026-04-30 20:57 | 33.97897 | 10.58196 | 10483 ft | 322 kts | 290° |
| 2026-04-30 20:57 | 33.98680 | 10.55628 | 10609 ft | 341 kts | 290° |
| 2026-04-30 20:58 | 34.00388 | 10.49996 | 10963 ft | 372 kts | 290° |
| 2026-04-30 20:58 | 34.01279 | 10.47050 | 11509 ft | 375 kts | 290° |
| 2026-04-30 20:58 | 34.02178 | 10.44087 | 12151 ft | 377 kts | 290° |
| 2026-04-30 20:58 | 34.03082 | 10.41112 | 12780 ft | 379 kts | 290° |
| 2026-04-30 20:59 | 34.04901 | 10.35121 | 13967 ft | 382 kts | 290° |
| 2026-04-30 20:59 | 34.05814 | 10.32103 | 14533 ft | 384 kts | 290° |
| 2026-04-30 21:00 | 34.07649 | 10.26031 | 15625 ft | 387 kts | 290° |
| 2026-04-30 21:00 | 34.09502 | 10.19902 | 16667 ft | 390 kts | 290° |
| 2026-04-30 21:01 | 34.11367 | 10.13717 | 17678 ft | 394 kts | 289° |
| 2026-04-30 21:01 | 34.12298 | 10.10603 | 18168 ft | 395 kts | 289° |
| 2026-04-30 21:01 | 34.14168 | 10.04339 | 19046 ft | 400 kts | 289° |
| 2026-04-30 21:02 | 34.15118 | 10.01170 | 19449 ft | 403 kts | 289° |
| 2026-04-30 21:02 | 34.16075 | 9.97980 | 19847 ft | 405 kts | 289° |
| 2026-04-30 21:02 | 34.17039 | 9.94767 | 20231 ft | 409 kts | 289° |
| 2026-04-30 21:02 | 34.18010 | 9.91528 | 20623 ft | 411 kts | 289° |
| 2026-04-30 21:03 | 34.18985 | 9.88270 | 21005 ft | 414 kts | 289° |
| 2026-04-30 21:03 | 34.19965 | 9.84988 | 21367 ft | 417 kts | 289° |
| 2026-04-30 21:03 | 34.20949 | 9.81681 | 21726 ft | 420 kts | 289° |
| 2026-04-30 21:03 | 34.21931 | 9.78358 | 22080 ft | 422 kts | 289° |
| 2026-04-30 21:04 | 34.22920 | 9.75003 | 22424 ft | 425 kts | 289° |
| 2026-04-30 21:04 | 34.23914 | 9.71639 | 22772 ft | 427 kts | 289° |
| 2026-04-30 21:04 | 34.25929 | 9.64845 | 23456 ft | 432 kts | 289° |
| 2026-04-30 21:05 | 34.26948 | 9.61415 | 23763 ft | 434 kts | 289° |
| 2026-04-30 21:05 | 34.27969 | 9.57970 | 24095 ft | 436 kts | 289° |
| 2026-04-30 21:05 | 34.28992 | 9.54508 | 24413 ft | 438 kts | 289° |
| 2026-04-30 21:05 | 34.30015 | 9.51038 | 24764 ft | 439 kts | 289° |
| 2026-04-30 21:06 | 34.31042 | 9.47552 | 25072 ft | 440 kts | 289° |
| 2026-04-30 21:06 | 34.32067 | 9.44058 | 25425 ft | 441 kts | 288° |
| 2026-04-30 21:06 | 34.33090 | 9.40556 | 25756 ft | 442 kts | 289° |
| 2026-04-30 21:06 | 34.34117 | 9.37044 | 26090 ft | 443 kts | 288° |
| 2026-04-30 21:07 | 34.35144 | 9.33532 | 26411 ft | 444 kts | 288° |
| 2026-04-30 21:07 | 34.36175 | 9.30007 | 26726 ft | 444 kts | 288° |
| 2026-04-30 21:07 | 34.37202 | 9.26484 | 27092 ft | 443 kts | 288° |
| 2026-04-30 21:07 | 34.38219 | 9.22983 | 27519 ft | 440 kts | 288° |
| 2026-04-30 21:08 | 34.39230 | 9.19494 | 27937 ft | 438 kts | 288° |
| 2026-04-30 21:08 | 34.40237 | 9.16026 | 28321 ft | 435 kts | 288° |
| 2026-04-30 21:08 | 34.41240 | 9.12581 | 28714 ft | 433 kts | 288° |
| 2026-04-30 21:08 | 34.42240 | 9.09145 | 29094 ft | 431 kts | 288° |
| 2026-04-30 21:09 | 34.43235 | 9.05727 | 29485 ft | 429 kts | 288° |
| 2026-04-30 21:09 | 34.44221 | 9.02328 | 29851 ft | 426 kts | 288° |
| 2026-04-30 21:09 | 34.45195 | 8.98951 | 30212 ft | 424 kts | 288° |
| 2026-04-30 21:09 | 34.46168 | 8.95577 | 30559 ft | 423 kts | 288° |
| 2026-04-30 21:10 | 34.47123 | 8.92270 | 30913 ft | 421 kts | 288° |
| 2026-04-30 21:10 | 34.48084 | 8.88937 | 31275 ft | 418 kts | 288° |
| 2026-04-30 21:10 | 34.49040 | 8.85615 | 31639 ft | 416 kts | 287° |
| 2026-04-30 21:10 | 34.49987 | 8.82318 | 32039 ft | 413 kts | 287° |
| 2026-04-30 21:11 | 34.50925 | 8.79042 | 32404 ft | 410 kts | 287° |
| 2026-04-30 21:11 | 34.51856 | 8.75784 | 32734 ft | 409 kts | 287° |
| 2026-04-30 21:11 | 34.52785 | 8.72532 | 33059 ft | 407 kts | 287° |
| 2026-04-30 21:11 | 34.53713 | 8.69294 | 33395 ft | 405 kts | 287° |
| 2026-04-30 21:12 | 34.54637 | 8.66079 | 33703 ft | 404 kts | 287° |
| 2026-04-30 21:12 | 34.55558 | 8.62866 | 33983 ft | 403 kts | 287° |
| 2026-04-30 21:12 | 34.57382 | 8.56467 | 34081 ft | 400 kts | 287° |
| 2026-04-30 21:13 | 34.59190 | 8.50097 | 34081 ft | 399 kts | 287° |
| 2026-04-30 21:13 | 34.60996 | 8.43720 | 34074 ft | 399 kts | 287° |
| 2026-04-30 21:14 | 34.62801 | 8.37348 | 34074 ft | 399 kts | 287° |
| 2026-04-30 21:14 | 34.64600 | 8.30965 | 34074 ft | 399 kts | 286° |
| 2026-04-30 21:15 | 34.66397 | 8.24598 | 34069 ft | 399 kts | 286° |
| 2026-04-30 21:15 | 34.68193 | 8.18216 | 34070 ft | 399 kts | 286° |
| 2026-04-30 21:16 | 34.69987 | 8.11831 | 34072 ft | 399 kts | 286° |
| 2026-04-30 21:16 | 34.71773 | 8.05444 | 34068 ft | 399 kts | 286° |
| 2026-04-30 21:17 | 34.73553 | 7.99060 | 34069 ft | 399 kts | 286° |
| 2026-04-30 21:17 | 34.75332 | 7.92661 | 34067 ft | 400 kts | 286° |
| 2026-04-30 21:18 | 34.77110 | 7.86247 | 34067 ft | 401 kts | 286° |
| 2026-04-30 21:18 | 34.78897 | 7.79823 | 34070 ft | 401 kts | 286° |
| 2026-04-30 21:19 | 34.80679 | 7.73383 | 34072 ft | 402 kts | 286° |
| 2026-04-30 21:19 | 34.82465 | 7.66924 | 34076 ft | 402 kts | 285° |
| 2026-04-30 21:20 | 34.84245 | 7.60464 | 34074 ft | 403 kts | 285° |
| 2026-04-30 21:20 | 34.86010 | 7.54037 | 34084 ft | 403 kts | 285° |
| 2026-04-30 21:21 | 34.87786 | 7.47555 | 34083 ft | 404 kts | 285° |
| 2026-04-30 21:22 | 34.90449 | 7.37816 | 34084 ft | 404 kts | 285° |
| 2026-04-30 21:23 | 34.93984 | 7.24788 | 34093 ft | 405 kts | 285° |
| 2026-04-30 21:23 | 34.96645 | 7.14990 | 34093 ft | 406 kts | 285° |
| 2026-04-30 21:24 | 34.98411 | 7.08459 | 34091 ft | 406 kts | 285° |
| 2026-04-30 21:24 | 35.00168 | 7.01912 | 34084 ft | 406 kts | 285° |
| 2026-04-30 21:25 | 35.02810 | 6.92101 | 34087 ft | 406 kts | 285° |
| 2026-04-30 21:26 | 35.05440 | 6.82256 | 34085 ft | 407 kts | 285° |
| 2026-04-30 21:27 | 35.08074 | 6.72397 | 34092 ft | 407 kts | 285° |
| 2026-04-30 21:27 | 35.09830 | 6.65813 | 34088 ft | 408 kts | 285° |
| 2026-04-30 21:28 | 35.12450 | 6.55925 | 34096 ft | 408 kts | 285° |
| 2026-04-30 21:29 | 35.15064 | 6.46019 | 34096 ft | 409 kts | 285° |
| 2026-04-30 21:30 | 35.19412 | 6.29463 | 34100 ft | 410 kts | 285° |
| 2026-04-30 21:31 | 35.23755 | 6.12843 | 34111 ft | 411 kts | 285° |
| 2026-04-30 21:32 | 35.26346 | 6.02883 | 34120 ft | 412 kts | 285° |
| 2026-04-30 21:32 | 35.28073 | 5.96195 | 34116 ft | 412 kts | 284° |
| 2026-04-30 21:33 | 35.30661 | 5.86145 | 34111 ft | 414 kts | 284° |
| 2026-04-30 21:34 | 35.32397 | 5.79420 | 34112 ft | 414 kts | 284° |
| 2026-04-30 21:34 | 35.34993 | 5.69313 | 34111 ft | 415 kts | 284° |
| 2026-04-30 21:35 | 35.36425 | 5.63699 | 34114 ft | 415 kts | 284° |
| 2026-04-30 21:35 | 35.38149 | 5.56940 | 34116 ft | 415 kts | 284° |
| 2026-04-30 21:36 | 35.39871 | 5.50181 | 34115 ft | 415 kts | 284° |
| 2026-04-30 21:37 | 35.43300 | 5.36661 | 34113 ft | 416 kts | 284° |
| 2026-04-30 21:37 | 35.45002 | 5.29892 | 34111 ft | 416 kts | 284° |
| 2026-04-30 21:38 | 35.46711 | 5.23110 | 34111 ft | 416 kts | 284° |
| 2026-04-30 21:38 | 35.48418 | 5.16315 | 34114 ft | 417 kts | 284° |
| 2026-04-30 21:39 | 35.50120 | 5.09509 | 34119 ft | 417 kts | 284° |
| 2026-04-30 21:39 | 35.51818 | 5.02687 | 34121 ft | 418 kts | 284° |
| 2026-04-30 21:40 | 35.53503 | 4.95910 | 34125 ft | 419 kts | 284° |
| 2026-04-30 21:40 | 35.55209 | 4.89067 | 34127 ft | 419 kts | 283° |
| 2026-04-30 21:41 | 35.56913 | 4.82210 | 34131 ft | 420 kts | 283° |
| 2026-04-30 21:41 | 35.58615 | 4.75336 | 34132 ft | 421 kts | 283° |
| 2026-04-30 21:42 | 35.60320 | 4.68442 | 34130 ft | 422 kts | 283° |
| 2026-04-30 21:42 | 35.62013 | 4.61534 | 34132 ft | 423 kts | 283° |
| 2026-04-30 21:43 | 35.63711 | 4.54598 | 34132 ft | 424 kts | 283° |
| 2026-04-30 21:43 | 35.65412 | 4.47640 | 34134 ft | 425 kts | 283° |
| 2026-04-30 21:44 | 35.67112 | 4.40664 | 34136 ft | 426 kts | 283° |
| 2026-04-30 21:44 | 35.68809 | 4.33683 | 34133 ft | 427 kts | 283° |
| 2026-04-30 21:45 | 35.70504 | 4.26678 | 34130 ft | 427 kts | 283° |
| 2026-04-30 21:45 | 35.72198 | 4.19664 | 34127 ft | 428 kts | 283° |
| 2026-04-30 21:46 | 35.73886 | 4.12634 | 34122 ft | 429 kts | 283° |
| 2026-04-30 21:46 | 35.75582 | 4.05602 | 34106 ft | 429 kts | 283° |
| 2026-04-30 21:47 | 35.77274 | 3.98557 | 34091 ft | 429 kts | 283° |
| 2026-04-30 21:47 | 35.78945 | 3.91552 | 34074 ft | 429 kts | 283° |
| 2026-04-30 21:48 | 35.80628 | 3.84487 | 34067 ft | 431 kts | 283° |
| 2026-04-30 21:48 | 35.82313 | 3.77399 | 34067 ft | 431 kts | 283° |
| 2026-04-30 21:49 | 35.83992 | 3.70306 | 34072 ft | 431 kts | 283° |
| 2026-04-30 21:49 | 35.85665 | 3.63208 | 34073 ft | 431 kts | 283° |
| 2026-04-30 21:50 | 35.87334 | 3.56122 | 34078 ft | 430 kts | 283° |
| 2026-04-30 21:50 | 35.89006 | 3.49030 | 34081 ft | 431 kts | 283° |
| 2026-04-30 21:51 | 35.90672 | 3.41941 | 34086 ft | 430 kts | 283° |
| 2026-04-30 21:51 | 35.92324 | 3.34842 | 34086 ft | 430 kts | 283° |
| 2026-04-30 21:52 | 35.93969 | 3.27736 | 34084 ft | 431 kts | 283° |
| 2026-04-30 21:52 | 35.95619 | 3.20635 | 34086 ft | 431 kts | 283° |
| 2026-04-30 21:53 | 35.97267 | 3.13529 | 34090 ft | 430 kts | 282° |
| 2026-04-30 21:53 | 35.98902 | 3.06427 | 34086 ft | 430 kts | 282° |
| 2026-04-30 21:54 | 36.00542 | 2.99314 | 34090 ft | 430 kts | 282° |
| 2026-04-30 21:54 | 36.02173 | 2.92209 | 34087 ft | 430 kts | 282° |
| 2026-04-30 21:55 | 36.03788 | 2.85145 | 34085 ft | 430 kts | 282° |
| 2026-04-30 21:55 | 36.05409 | 2.78031 | 34080 ft | 430 kts | 282° |
| 2026-04-30 21:56 | 36.07029 | 2.70919 | 34080 ft | 430 kts | 282° |
| 2026-04-30 21:56 | 36.08643 | 2.63791 | 34080 ft | 431 kts | 282° |
| 2026-04-30 21:57 | 36.10249 | 2.56659 | 34076 ft | 431 kts | 282° |
| 2026-04-30 21:57 | 36.11853 | 2.49513 | 34076 ft | 431 kts | 282° |
| 2026-04-30 21:58 | 36.13466 | 2.42358 | 34076 ft | 432 kts | 282° |
| 2026-04-30 21:58 | 36.15078 | 2.35193 | 34078 ft | 432 kts | 282° |
| 2026-04-30 21:59 | 36.16680 | 2.28018 | 34076 ft | 433 kts | 282° |
| 2026-04-30 22:00 | 36.19074 | 2.17234 | 34081 ft | 433 kts | 281° |
| 2026-04-30 22:00 | 36.21462 | 2.06436 | 34088 ft | 434 kts | 281° |
| 2026-04-30 22:01 | 36.23054 | 1.99232 | 34085 ft | 433 kts | 281° |
| 2026-04-30 22:01 | 36.24637 | 1.92028 | 34079 ft | 433 kts | 281° |
| 2026-04-30 22:02 | 36.26209 | 1.84826 | 34078 ft | 433 kts | 281° |
| 2026-04-30 22:02 | 36.27769 | 1.77659 | 34074 ft | 434 kts | 281° |
| 2026-04-30 22:03 | 36.29353 | 1.70395 | 34073 ft | 434 kts | 281° |
| 2026-04-30 22:03 | 36.30920 | 1.63185 | 34076 ft | 433 kts | 281° |
| 2026-04-30 22:04 | 36.32470 | 1.56022 | 34077 ft | 433 kts | 281° |
| 2026-04-30 22:05 | 36.34800 | 1.45208 | 34072 ft | 433 kts | 281° |
| 2026-04-30 22:05 | 36.36349 | 1.37996 | 34075 ft | 433 kts | 281° |
| 2026-04-30 22:06 | 36.37886 | 1.30774 | 34072 ft | 433 kts | 281° |
| 2026-04-30 22:06 | 36.40198 | 1.19950 | 34071 ft | 433 kts | 281° |
| 2026-04-30 22:07 | 36.41732 | 1.12717 | 34074 ft | 433 kts | 281° |
| 2026-04-30 22:07 | 36.43264 | 1.05481 | 34071 ft | 433 kts | 281° |
| 2026-04-30 22:08 | 36.44794 | 0.98241 | 34073 ft | 433 kts | 281° |
| 2026-04-30 22:08 | 36.46308 | 0.90987 | 34077 ft | 434 kts | 281° |
| 2026-04-30 22:09 | 36.47826 | 0.83727 | 34077 ft | 434 kts | 281° |
| 2026-04-30 22:09 | 36.49351 | 0.76463 | 34075 ft | 435 kts | 281° |
| 2026-04-30 22:10 | 36.50865 | 0.69199 | 34079 ft | 435 kts | 281° |
| 2026-04-30 22:10 | 36.52370 | 0.61922 | 34079 ft | 435 kts | 281° |
| 2026-04-30 22:11 | 36.54621 | 0.50988 | 34078 ft | 435 kts | 281° |
| 2026-04-30 22:12 | 36.56124 | 0.43692 | 34079 ft | 436 kts | 281° |
| 2026-04-30 22:12 | 36.57627 | 0.36392 | 34078 ft | 436 kts | 281° |
| 2026-04-30 22:13 | 36.59120 | 0.29086 | 34086 ft | 436 kts | 280° |
| 2026-04-30 22:13 | 36.60602 | 0.21783 | 34084 ft | 436 kts | 280° |
| 2026-04-30 22:14 | 36.62084 | 0.14468 | 34083 ft | 436 kts | 280° |
| 2026-04-30 22:14 | 36.63563 | 0.07155 | 34082 ft | 436 kts | 280° |
| 2026-04-30 22:15 | 36.65038 | -0.00165 | 34090 ft | 436 kts | 280° |
| 2026-04-30 22:15 | 36.66509 | -0.07487 | 34088 ft | 436 kts | 280° |
| 2026-04-30 22:16 | 36.67981 | -0.14811 | 34087 ft | 436 kts | 280° |
| 2026-04-30 22:17 | 36.70894 | -0.29470 | 34099 ft | 436 kts | 279° |
| 2026-04-30 22:17 | 36.73061 | -0.40412 | 34100 ft | 436 kts | 279° |
| 2026-04-30 22:18 | 36.75234 | -0.51422 | 34105 ft | 436 kts | 279° |
| 2026-04-30 22:19 | 36.77386 | -0.62443 | 34111 ft | 436 kts | 279° |
| 2026-04-30 22:20 | 36.79533 | -0.73470 | 34116 ft | 436 kts | 279° |
| 2026-04-30 22:20 | 36.81673 | -0.84500 | 34121 ft | 436 kts | 279° |
| 2026-04-30 22:21 | 36.83093 | -0.91865 | 34124 ft | 436 kts | 279° |
| 2026-04-30 22:21 | 36.84507 | -0.99233 | 34125 ft | 437 kts | 279° |
| 2026-04-30 22:22 | 36.85917 | -1.06606 | 34128 ft | 436 kts | 279° |
| 2026-04-30 22:22 | 36.87321 | -1.13974 | 34127 ft | 436 kts | 279° |
| 2026-04-30 22:23 | 36.88726 | -1.21343 | 34128 ft | 436 kts | 279° |
| 2026-04-30 22:23 | 36.90124 | -1.28714 | 34128 ft | 436 kts | 279° |
| 2026-04-30 22:24 | 36.91279 | -1.34836 | 34128 ft | 436 kts | 279° |
| 2026-04-30 22:24 | 36.92672 | -1.42208 | 34128 ft | 436 kts | 279° |
| 2026-04-30 22:25 | 36.94055 | -1.49582 | 34128 ft | 436 kts | 279° |
| 2026-04-30 22:25 | 36.95430 | -1.56959 | 34126 ft | 436 kts | 279° |
| 2026-04-30 22:26 | 36.97491 | -1.68022 | 34127 ft | 436 kts | 279° |
| 2026-04-30 22:27 | 36.98857 | -1.75405 | 34130 ft | 436 kts | 278° |
| 2026-04-30 22:27 | 37.00894 | -1.86484 | 34131 ft | 435 kts | 278° |
| 2026-04-30 22:28 | 37.02926 | -1.97562 | 34130 ft | 435 kts | 278° |
| 2026-04-30 22:29 | 37.05618 | -2.12334 | 34126 ft | 435 kts | 278° |
| 2026-04-30 22:31 | 37.10277 | -2.38201 | 34125 ft | 435 kts | 278° |
| 2026-04-30 22:32 | 37.13560 | -2.56679 | 34118 ft | 435 kts | 278° |
| 2026-04-30 22:33 | 37.16826 | -2.75154 | 34109 ft | 434 kts | 278° |
| 2026-04-30 22:35 | 37.19991 | -2.93282 | 34114 ft | 435 kts | 277° |
| 2026-04-30 22:36 | 37.23195 | -3.11793 | 34128 ft | 436 kts | 277° |
| 2026-04-30 22:37 | 37.25744 | -3.26668 | 34134 ft | 436 kts | 277° |
| 2026-04-30 22:38 | 37.28288 | -3.41554 | 34140 ft | 436 kts | 277° |
| 2026-04-30 22:39 | 37.30163 | -3.52724 | 34141 ft | 436 kts | 277° |
| 2026-04-30 22:40 | 37.33914 | -3.75102 | 34150 ft | 436 kts | 276° |
| 2026-04-30 22:41 | 37.37003 | -3.93786 | 34150 ft | 437 kts | 276° |
| 2026-04-30 22:43 | 37.40685 | -4.16235 | 34141 ft | 437 kts | 276° |
| 2026-04-30 22:44 | 37.43107 | -4.31237 | 34134 ft | 438 kts | 276° |
| 2026-04-30 22:45 | 37.46709 | -4.53752 | 34125 ft | 438 kts | 276° |
| 2026-04-30 22:47 | 37.50289 | -4.76322 | 34118 ft | 438 kts | 276° |
| 2026-04-30 22:48 | 37.52641 | -4.91394 | 34118 ft | 438 kts | 276° |
| 2026-04-30 22:49 | 37.56140 | -5.14000 | 34111 ft | 438 kts | 276° |
| 2026-04-30 22:51 | 37.59595 | -5.36634 | 34109 ft | 439 kts | 277° |
| 2026-04-30 22:52 | 37.61320 | -5.47984 | 34113 ft | 439 kts | 277° |
| 2026-04-30 22:53 | 37.63578 | -5.63095 | 34122 ft | 440 kts | 277° |
| 2026-04-30 22:53 | 37.65272 | -5.74478 | 34127 ft | 440 kts | 277° |
| 2026-04-30 22:55 | 37.68061 | -5.93431 | 34128 ft | 439 kts | 277° |
| 2026-04-30 22:56 | 37.70286 | -6.08599 | 34125 ft | 439 kts | 277° |
| 2026-04-30 22:57 | 37.73022 | -6.27583 | 34129 ft | 440 kts | 277° |
| 2026-04-30 22:58 | 37.75197 | -6.42791 | 34135 ft | 440 kts | 277° |
| 2026-04-30 22:59 | 37.78388 | -6.65553 | 34134 ft | 438 kts | 277° |